Time;durP1;ratioP1;P1;durP2;ratioP2;P2;SDS_P1;SDS_P2;PMS_P1;PMS_P2;Temp;Humidity;BMP_temperature;BMP_pressure;BME280_temperature;BME280_humidity;BME280_pressure;Samples;Min_cycle;Max_cycle;Signal;HPM_P1;HPM_P2
2022/01/25 00:09:08;;;;;;;3.60;1.40;;;25.80;64.20;;;;;;4161047;28;20099;-73
2022/01/25 00:27:41;;;;;;;;;;;25.80;64.40;;;;;;4160615;28;20538;-79
2022/01/25 00:30:30;;;;;;;4.03;1.75;;;25.80;64.50;;;;;;4159784;28;20261;-79
2022/01/25 00:32:52;;;;;;;6.28;3.67;;;25.80;64.50;;;;;;4159207;28;20056;-76
2022/01/25 00:35:15;;;;;;;225.05;134.50;;;25.90;64.60;;;;;;4153662;28;20029;-73
2022/01/25 00:37:37;;;;;;;515.75;337.23;;;25.90;64.80;;;;;;4147906;28;20168;-74
2022/01/25 00:39:59;;;;;;;311.50;192.77;;;25.80;65.40;;;;;;4153473;28;20033;-72
2022/01/25 00:42:22;;;;;;;462.48;307.85;;;25.90;65.20;;;;;;4153033;28;20444;-72
2022/01/25 00:44:48;;;;;;;522.20;348.92;;;25.90;65.80;;;;;;4154919;28;20522;-73
2022/01/25 00:47:10;;;;;;;499.25;326.88;;;25.90;65.10;;;;;;4153298;28;20038;-73
2022/01/25 00:49:39;;;;;;;546.78;363.95;;;25.90;64.80;;;;;;4155530;28;20060;-72
2022/01/25 00:52:19;;;;;;;606.53;421.85;;;25.90;65.10;;;;;;4153305;28;20109;-73
2022/01/25 00:54:43;;;;;;;575.50;396.05;;;25.90;65.50;;;;;;4151736;28;20034;-72
2022/01/25 00:57:07;;;;;;;658.22;462.40;;;25.90;65.20;;;;;;4154692;28;20034;-73
2022/01/25 00:59:32;;;;;;;682.47;484.20;;;25.90;65.20;;;;;;4152257;28;20125;-73
2022/01/25 01:02:05;;;;;;;622.55;438.73;;;25.90;65.60;;;;;;4143512;28;20157;-72
2022/01/25 01:04:30;;;;;;;626.35;442.17;;;25.90;65.30;;;;;;4152752;28;20120;-73
2022/01/25 01:06:53;;;;;;;685.72;485.75;;;25.90;65.10;;;;;;4153277;28;20112;-73
2022/01/25 01:09:18;;;;;;;823.80;582.05;;;25.90;65.10;;;;;;4161088;28;20159;-72
2022/01/25 01:11:56;;;;;;;768.50;556.13;;;25.90;65.40;;;;;;4156095;28;20160;-73
2022/01/25 01:33:33;;;;;;;794.85;582.47;;;25.90;65.30;;;;;;4155541;28;20091;-66
2022/01/25 01:45:58;;;;;;;808.83;581.13;;;25.90;65.20;;;;;;4158609;28;20045;-69
2022/01/25 01:48:37;;;;;;;961.40;654.13;;;25.90;65.20;;;;;;4161374;28;20045;-66
2022/01/25 01:51:21;;;;;;;811.05;595.17;;;25.90;66.20;;;;;;4161948;28;20045;-66
2022/01/25 01:53:45;;;;;;;686.78;493.38;;;26.00;65.50;;;;;;4159309;28;20100;-68
2022/01/25 01:56:09;;;;;;;;;;;25.90;65.20;;;;;;4161697;28;20081;-67
2022/01/25 01:58:36;;;;;;;806.75;575.97;;;25.90;65.70;;;;;;4160082;28;19927;-67
2022/01/25 02:00:58;;;;;;;731.42;524.70;;;25.90;65.70;;;;;;4158633;28;20104;-68
2022/01/25 02:03:22;;;;;;;974.95;660.60;;;26.00;65.20;;;;;;4159566;28;20044;-68
2022/01/25 02:05:44;;;;;;;628.85;440.90;;;25.90;65.90;;;;;;4161681;28;20045;-68
2022/01/25 02:08:07;;;;;;;726.10;528.55;;;25.90;65.00;;;;;;4161446;28;20124;-67
2022/01/25 02:10:30;;;;;;;667.10;477.90;;;25.90;65.40;;;;;;4142115;28;20140;-66
2022/01/25 02:12:53;;;;;;;1027.07;687.42;;;25.90;64.90;;;;;;4167854;28;20083;-67
2022/01/25 02:15:18;;;;;;;971.72;668.92;;;26.00;66.30;;;;;;4163000;28;20038;-67
2022/01/25 02:22:54;;;;;;;700.63;507.48;;;26.00;65.40;;;;;;4159240;28;20037;-67
2022/01/25 02:25:17;;;;;;;754.58;535.70;;;26.10;65.20;;;;;;4158854;28;20116;-67
2022/01/25 02:27:39;;;;;;;839.70;603.10;;;26.10;65.30;;;;;;4162872;28;20107;-66
2022/01/25 02:30:02;;;;;;;783.22;558.97;;;26.10;65.50;;;;;;4160264;28;20093;-66
2022/01/25 02:32:24;;;;;;;697.22;497.20;;;26.10;65.70;;;;;;4160958;28;20126;-67
2022/01/25 02:34:47;;;;;;;734.15;527.17;;;26.10;65.00;;;;;;4160089;28;20037;-66
2022/01/25 02:37:14;;;;;;;575.35;393.95;;;26.10;65.30;;;;;;4160308;28;20080;-66
2022/01/25 02:39:39;;;;;;;596.10;409.95;;;26.20;64.40;;;;;;4158523;28;20053;-67
2022/01/25 02:42:01;;;;;;;536.05;354.38;;;26.20;64.30;;;;;;4158885;28;20067;-68
2022/01/25 02:44:26;;;;;;;512.17;340.67;;;26.20;63.90;;;;;;4161213;28;20041;-66
2022/01/25 02:49:12;;;;;;;468.50;299.80;;;26.30;63.40;;;;;;4154156;28;20065;-69
2022/01/25 02:51:42;;;;;;;534.13;362.33;;;26.20;63.30;;;;;;4155151;28;20483;-68
2022/01/25 02:54:07;;;;;;;602.80;418.02;;;26.30;63.70;;;;;;4160559;28;20124;-68
2022/01/25 02:56:30;;;;;;;537.00;362.52;;;26.30;63.90;;;;;;4160215;28;20145;-69
2022/01/25 02:58:53;;;;;;;568.37;393.37;;;26.30;63.80;;;;;;4160513;28;20049;-67
2022/01/25 03:01:16;;;;;;;466.50;297.70;;;26.30;63.80;;;;;;4160918;28;20045;-67
2022/01/25 03:03:39;;;;;;;446.25;282.27;;;26.30;63.00;;;;;;4157155;28;20408;-67
2022/01/25 03:06:02;;;;;;;412.40;257.58;;;26.40;63.20;;;;;;4159435;28;20033;-67
2022/01/25 03:08:24;;;;;;;395.35;250.00;;;26.40;62.90;;;;;;4160579;28;20151;-66
2022/01/25 03:10:47;;;;;;;313.73;190.35;;;26.40;62.60;;;;;;4158913;28;20053;-67
2022/01/25 03:13:16;;;;;;;397.90;245.85;;;26.40;62.50;;;;;;4156240;28;20392;-68
2022/01/25 03:16:18;;;;;;;438.40;273.20;;;26.40;62.40;;;;;;4157897;28;20128;-69
2022/01/25 03:21:01;;;;;;;321.23;204.25;;;26.50;62.80;;;;;;4160573;28;20149;-67
2022/01/25 03:23:24;;;;;;;348.80;218.32;;;26.50;62.40;;;;;;4159418;28;20573;-66
2022/01/25 03:25:47;;;;;;;402.25;258.08;;;26.50;62.40;;;;;;4158764;28;20055;-68
2022/01/25 03:28:09;;;;;;;;;;;26.50;62.50;;;;;;4160970;28;20592;-68
2022/01/25 03:30:32;;;;;;;497.05;322.83;;;26.50;62.70;;;;;;4160822;28;19913;-66
2022/01/25 03:32:55;;;;;;;483.30;312.40;;;26.50;63.00;;;;;;4157828;28;20283;-66
2022/01/25 03:35:17;;;;;;;511.13;331.23;;;26.50;63.00;;;;;;4159564;28;20037;-69
2022/01/25 03:37:42;;;;;;;501.50;327.77;;;26.50;63.10;;;;;;4160062;28;20057;-68
2022/01/25 03:40:05;;;;;;;398.10;248.05;;;26.50;62.90;;;;;;4161131;28;20387;-68
2022/01/25 03:42:27;;;;;;;448.98;285.95;;;26.50;62.50;;;;;;4154115;28;20037;-69
2022/01/25 03:44:50;;;;;;;482.05;312.10;;;26.50;62.60;;;;;;4159946;28;20107;-67
2022/01/25 03:47:17;;;;;;;455.87;294.20;;;26.50;62.70;;;;;;4159321;28;20116;-68
2022/01/25 03:49:52;;;;;;;368.35;230.63;;;26.50;62.60;;;;;;4160553;28;20072;-69
2022/01/25 03:52:16;;;;;;;455.45;289.45;;;26.60;62.40;;;;;;4160630;28;20037;-67
2022/01/25 03:54:39;;;;;;;410.52;264.45;;;26.60;62.60;;;;;;4159240;28;20073;-68
2022/01/25 03:57:05;;;;;;;397.05;251.48;;;26.60;62.40;;;;;;4160236;28;20047;-70
2022/01/25 03:59:29;;;;;;;413.00;260.60;;;26.60;62.40;;;;;;4157956;28;20430;-73
2022/01/25 04:01:51;;;;;;;303.35;195.68;;;26.60;62.20;;;;;;4160226;28;20044;-74
2022/01/25 04:04:17;;;;;;;284.27;179.38;;;26.60;62.00;;;;;;4159085;28;20025;-73
2022/01/25 04:06:44;;;;;;;272.35;169.07;;;26.60;61.80;;;;;;4157262;28;20489;-71
2022/01/25 04:09:09;;;;;;;237.65;144.82;;;26.70;62.00;;;;;;4155959;28;20049;-72
2022/01/25 04:11:31;;;;;;;271.90;171.43;;;26.70;61.70;;;;;;4155992;28;20049;-73
2022/01/25 04:13:57;;;;;;;291.75;185.88;;;26.70;61.80;;;;;;4155156;28;20171;-72
2022/01/25 04:16:26;;;;;;;317.33;207.80;;;26.70;61.80;;;;;;4151774;28;20030;-72
2022/01/25 04:26:38;;;;;;;226.05;144.38;;;27.00;61.00;;;;;;4155529;28;20371;-74
2022/01/25 04:29:01;;;;;;;210.52;137.55;;;27.00;60.60;;;;;;4160593;28;20046;-70
2022/01/25 04:31:23;;;;;;;213.63;141.57;;;27.00;60.50;;;;;;4155484;28;20037;-71
2022/01/25 04:34:07;;;;;;;219.10;142.95;;;27.10;60.00;;;;;;4151952;28;20157;-71
2022/01/25 04:49:56;;;;;;;230.40;146.93;;;27.40;59.70;;;;;;4154626;28;20049;-73
2022/01/25 04:52:22;;;;;;;161.45;104.15;;;27.50;59.60;;;;;;4161023;28;20057;-73
2022/01/25 04:55:06;;;;;;;126.68;84.35;;;27.50;58.90;;;;;;4160297;28;20541;-72
2022/01/25 05:00:15;;;;;;;77.93;52.40;;;27.70;58.70;;;;;;4156203;28;20428;-72
2022/01/25 05:02:51;;;;;;;74.63;51.85;;;27.70;58.10;;;;;;4160253;28;20472;-73
2022/01/25 05:05:23;;;;;;;47.45;35.22;;;27.80;58.30;;;;;;4159242;28;20143;-74
2022/01/25 05:07:55;;;;;;;38.53;25.67;;;27.90;57.50;;;;;;4158798;28;20084;-72
2022/01/25 05:10:18;;;;;;;32.00;21.90;;;27.90;57.40;;;;;;4159587;28;20172;-73
2022/01/25 05:12:52;;;;;;;25.27;17.38;;;27.90;57.30;;;;;;4158938;28;20033;-72
2022/01/25 05:15:37;;;;;;;33.38;24.13;;;27.80;58.00;;;;;;4159386;28;20049;-73
2022/01/25 05:23:09;;;;;;;42.42;30.63;;;27.80;58.00;;;;;;4151784;28;20148;-73
2022/01/25 05:25:32;;;;;;;44.78;32.55;;;27.80;57.80;;;;;;4137841;28;20125;-72
2022/01/25 05:27:54;;;;;;;48.08;35.00;;;27.80;58.10;;;;;;4151362;28;20124;-74
2022/01/25 05:30:16;;;;;;;41.60;29.98;;;27.90;58.70;;;;;;4157460;28;20141;-72
2022/01/25 05:32:39;;;;;;;44.03;31.73;;;27.90;58.00;;;;;;4154725;28;20045;-73
2022/01/25 05:35:02;;;;;;;39.88;29.40;;;27.90;58.20;;;;;;4158347;28;20124;-72
2022/01/25 05:37:24;;;;;;;;;;;27.90;58.30;;;;;;4160624;28;20049;-75
2022/01/25 05:39:48;;;;;;;33.83;22.40;;;27.90;57.80;;;;;;4157585;28;19924;-72
2022/01/25 05:42:28;;;;;;;29.80;19.80;;;27.90;58.00;;;;;;4159338;28;20092;-72
2022/01/25 05:47:15;;;;;;;18.00;13.43;;;28.00;57.80;;;;;;4152029;28;20045;-73
2022/01/25 05:49:38;;;;;;;23.23;15.23;;;28.00;56.90;;;;;;4151800;28;20663;-72
2022/01/25 05:52:02;;;;;;;19.13;15.52;;;28.20;57.40;;;;;;4149947;28;20506;-74
2022/01/25 05:54:24;;;;;;;;;;;28.20;57.20;;;;;;4150973;28;20164;-74
2022/01/25 05:56:47;;;;;;;15.60;9.43;;;28.30;57.20;;;;;;4157868;28;19909;-74
2022/01/25 05:59:09;;;;;;;16.08;9.32;;;28.30;56.40;;;;;;4154079;28;20360;-73
2022/01/25 06:01:34;;;;;;;16.35;10.13;;;28.30;56.50;;;;;;4154825;28;20060;-74
2022/01/25 06:03:56;;;;;;;15.63;9.48;;;28.20;56.50;;;;;;4156432;28;20113;-74
2022/01/25 06:06:19;;;;;;;15.75;10.60;;;28.20;56.80;;;;;;4158881;28;20387;-72
2022/01/25 06:08:41;;;;;;;17.73;11.45;;;28.30;56.90;;;;;;4160134;28;20087;-73
2022/01/25 06:11:04;;;;;;;11.23;8.77;;;28.30;56.90;;;;;;4155648;28;20057;-72
2022/01/25 06:13:26;;;;;;;15.38;10.88;;;28.40;56.70;;;;;;4158003;28;20116;-71
2022/01/25 06:15:49;;;;;;;19.10;12.43;;;28.40;56.80;;;;;;4155832;28;20465;-72
2022/01/25 06:18:11;;;;;;;15.57;10.35;;;28.50;56.90;;;;;;4150129;28;20097;-72
2022/01/25 06:20:34;;;;;;;11.95;8.57;;;28.50;57.40;;;;;;4153024;28;20472;-72
2022/01/25 06:22:58;;;;;;;14.63;7.13;;;28.60;56.10;;;;;;4153170;28;20033;-72
2022/01/25 06:25:20;;;;;;;10.57;5.65;;;28.60;55.80;;;;;;4157672;28;20025;-66
2022/01/25 06:27:44;;;;;;;10.63;6.55;;;28.70;55.60;;;;;;4150570;28;20492;-68
2022/01/25 06:30:13;;;;;;;9.65;6.55;;;28.70;55.60;;;;;;4159710;28;20485;-68
2022/01/25 06:32:36;;;;;;;11.25;6.68;;;28.70;55.60;;;;;;4166737;28;20065;-67
2022/01/25 06:34:59;;;;;;;9.05;5.65;;;28.80;55.80;;;;;;4166099;28;20045;-68
2022/01/25 06:37:21;;;;;;;7.60;4.80;;;28.80;55.30;;;;;;4164188;28;20069;-68
2022/01/25 06:39:43;;;;;;;10.50;6.20;;;28.90;55.40;;;;;;4164024;28;20033;-69
2022/01/25 06:42:06;;;;;;;9.65;5.50;;;28.90;55.50;;;;;;4161442;28;20037;-70
2022/01/25 06:44:29;;;;;;;9.95;6.13;;;28.90;55.40;;;;;;4162404;28;20041;-70
2022/01/25 06:46:51;;;;;;;9.45;6.40;;;28.90;55.60;;;;;;4160050;28;20546;-69
2022/01/25 06:49:16;;;;;;;10.00;5.43;;;28.90;55.70;;;;;;4154026;28;20116;-71
2022/01/25 06:51:38;;;;;;;8.68;4.63;;;29.00;55.60;;;;;;4147574;28;20030;-68
2022/01/25 06:54:01;;;;;;;6.10;3.90;;;29.00;55.10;;;;;;4161455;28;20042;-67
2022/01/25 06:57:18;;;;;;;4.93;3.22;;;29.00;54.70;;;;;;4162037;28;20040;-70
2022/01/25 06:59:41;;;;;;;5.28;2.83;;;29.10;54.70;;;;;;4156001;28;20052;-67
2022/01/25 07:02:05;;;;;;;6.95;2.85;;;29.10;53.90;;;;;;4161298;28;20044;-71
2022/01/25 07:04:27;;;;;;;7.15;2.97;;;29.10;54.20;;;;;;4160695;28;20922;-69
2022/01/25 07:06:50;;;;;;;5.28;2.70;;;29.10;53.90;;;;;;4140527;28;20042;-70
2022/01/25 07:09:12;;;;;;;6.07;2.47;;;29.10;53.80;;;;;;4159468;28;20156;-69
2022/01/25 07:11:35;;;;;;;4.57;2.50;;;29.10;53.80;;;;;;4158962;28;20034;-70
2022/01/25 07:13:58;;;;;;;6.78;2.60;;;29.20;54.20;;;;;;4158550;28;20084;-70
2022/01/25 07:16:21;;;;;;;5.38;2.63;;;29.20;54.10;;;;;;4156182;28;20033;-70
2022/01/25 07:18:43;;;;;;;4.97;2.63;;;29.20;54.10;;;;;;4153028;28;20048;-70
2022/01/25 07:21:06;;;;;;;7.77;2.80;;;29.10;54.80;;;;;;4157434;28;20123;-69
2022/01/25 07:23:29;;;;;;;4.07;2.57;;;29.10;54.10;;;;;;4148485;28;20051;-69
2022/01/25 07:25:52;;;;;;;5.55;2.85;;;29.10;55.00;;;;;;4154568;28;20133;-69
2022/01/25 07:28:15;;;;;;;4.60;2.30;;;29.00;54.60;;;;;;4153012;28;20026;-69
2022/01/25 07:30:40;;;;;;;5.63;2.53;;;29.00;54.70;;;;;;4157287;28;20045;-70
2022/01/25 07:33:05;;;;;;;4.75;2.20;;;28.90;54.60;;;;;;4139750;28;20549;-69
2022/01/25 07:35:28;;;;;;;5.40;2.90;;;28.90;54.60;;;;;;4157212;28;20439;-70
2022/01/25 07:37:51;;;;;;;7.47;2.38;;;28.90;54.90;;;;;;4150732;28;20038;-69
2022/01/25 07:40:16;;;;;;;4.13;2.03;;;28.80;54.60;;;;;;4159804;28;20117;-69
2022/01/25 07:42:39;;;;;;;6.07;1.85;;;28.80;55.00;;;;;;4155834;28;20090;-68
2022/01/25 07:45:07;;;;;;;3.75;2.05;;;28.80;54.80;;;;;;4159053;28;20041;-68
2022/01/25 07:47:31;;;;;;;5.15;2.28;;;28.80;55.00;;;;;;4159784;28;20136;-69
2022/01/25 07:49:54;;;;;;;4.18;2.00;;;28.70;55.00;;;;;;4155249;28;20103;-68
2022/01/25 07:52:17;;;;;;;3.90;2.00;;;28.70;55.20;;;;;;4150303;28;20041;-69
2022/01/25 07:54:39;;;;;;;6.13;2.22;;;28.70;55.50;;;;;;4154462;28;20041;-70
2022/01/25 07:57:05;;;;;;;5.40;2.23;;;28.70;55.50;;;;;;4151713;28;20119;-70
2022/01/25 07:59:30;;;;;;;4.18;2.28;;;28.70;55.60;;;;;;4152107;28;20034;-69
2022/01/25 08:01:53;;;;;;;4.65;2.30;;;28.60;55.60;;;;;;4153957;28;20045;-70
2022/01/25 08:04:16;;;;;;;4.93;2.20;;;28.60;55.80;;;;;;4151163;28;20046;-69
2022/01/25 08:06:39;;;;;;;4.60;2.30;;;28.70;55.90;;;;;;4157486;28;20059;-69
2022/01/25 08:09:03;;;;;;;4.97;2.03;;;28.60;55.80;;;;;;4153378;28;20043;-67
2022/01/25 08:11:26;;;;;;;4.82;1.92;;;28.60;56.00;;;;;;4155538;28;20049;-69
2022/01/25 08:13:50;;;;;;;3.92;2.17;;;28.60;56.10;;;;;;4156468;28;20431;-69
2022/01/25 08:16:12;;;;;;;6.10;2.20;;;28.60;56.10;;;;;;4152125;28;20029;-75
2022/01/25 08:18:35;;;;;;;3.58;2.08;;;28.60;56.20;;;;;;4152432;28;20045;-73
2022/01/25 08:20:57;;;;;;;4.60;2.35;;;28.60;56.20;;;;;;4155257;28;20163;-74
2022/01/25 08:23:20;;;;;;;4.40;1.90;;;28.60;56.30;;;;;;4156924;28;20436;-74
2022/01/25 08:25:43;;;;;;;4.10;2.17;;;28.50;56.20;;;;;;4159230;28;20037;-74
2022/01/25 08:28:06;;;;;;;5.88;2.38;;;28.50;56.30;;;;;;4157289;28;20101;-74
2022/01/25 08:30:31;;;;;;;5.00;2.28;;;28.50;56.40;;;;;;4153074;28;20044;-75
2022/01/25 08:32:54;;;;;;;4.70;1.95;;;28.50;56.40;;;;;;4141952;28;20050;-75
2022/01/25 08:35:16;;;;;;;6.28;2.08;;;28.50;56.60;;;;;;4154948;28;20467;-74
2022/01/25 08:37:40;;;;;;;5.90;2.30;;;28.50;56.50;;;;;;4154389;28;20553;-73
2022/01/25 08:40:04;;;;;;;3.72;1.85;;;28.40;56.70;;;;;;4150079;28;20480;-73
2022/01/25 08:42:27;;;;;;;4.88;1.63;;;28.40;56.90;;;;;;4154663;28;20034;-75
2022/01/25 08:44:53;;;;;;;3.83;1.83;;;28.40;56.70;;;;;;4155692;28;20044;-74
2022/01/25 08:47:16;;;;;;;3.08;1.83;;;28.40;56.40;;;;;;4156198;28;20035;-73
2022/01/25 08:49:39;;;;;;;3.10;1.50;;;28.40;56.80;;;;;;4153436;28;20041;-74
2022/01/25 08:52:01;;;;;;;;;;;28.40;56.80;;;;;;4157205;28;20041;-73
2022/01/25 08:54:25;;;;;;;3.85;2.05;;;28.40;57.20;;;;;;4154436;28;19975;-73
2022/01/25 08:56:48;;;;;;;3.70;1.83;;;28.40;56.80;;;;;;4156625;28;20127;-73
2022/01/25 08:59:12;;;;;;;4.63;1.67;;;28.30;56.80;;;;;;4155607;28;20051;-74
2022/01/25 09:01:34;;;;;;;5.32;2.03;;;28.30;56.90;;;;;;4152819;28;20744;-74
2022/01/25 09:04:01;;;;;;;3.80;1.85;;;28.30;57.60;;;;;;4148616;28;20744;-75
2022/01/25 09:06:23;;;;;;;2.83;1.63;;;28.30;56.60;;;;;;4150017;28;20079;-71
2022/01/25 09:08:46;;;;;;;5.27;1.90;;;28.30;57.00;;;;;;4148371;28;20045;-73
2022/01/25 09:11:09;;;;;;;7.93;2.08;;;28.30;57.00;;;;;;4151120;28;20106;-74
2022/01/25 09:13:32;;;;;;;3.35;1.60;;;28.30;57.00;;;;;;4149776;28;20127;-74
2022/01/25 09:15:55;;;;;;;5.18;1.70;;;28.20;57.00;;;;;;4153719;28;20094;-75
2022/01/25 09:18:19;;;;;;;2.63;1.35;;;28.30;57.10;;;;;;4147919;28;20091;-75
2022/01/25 09:20:41;;;;;;;5.68;1.65;;;28.20;57.20;;;;;;4148914;28;20621;-75
2022/01/25 09:23:04;;;;;;;3.17;1.45;;;28.20;57.20;;;;;;4151111;28;20101;-74
2022/01/25 09:25:27;;;;;;;4.18;1.85;;;28.20;57.20;;;;;;4147810;28;20044;-75
2022/01/25 09:27:50;;;;;;;4.32;1.80;;;28.20;57.20;;;;;;4150190;28;20045;-74
2022/01/25 09:30:13;;;;;;;3.60;1.50;;;28.20;57.50;;;;;;4151264;28;20041;-73
2022/01/25 09:32:36;;;;;;;3.53;1.65;;;28.20;57.20;;;;;;4140916;28;20057;-73
2022/01/25 09:34:59;;;;;;;3.60;1.75;;;28.20;57.60;;;;;;4148365;28;20375;-75
2022/01/25 09:37:22;;;;;;;3.85;1.60;;;28.20;57.50;;;;;;4152231;28;20131;-73
2022/01/25 09:39:45;;;;;;;3.33;1.70;;;28.10;57.40;;;;;;4150358;28;20041;-74
2022/01/25 09:42:11;;;;;;;4.05;1.60;;;28.10;57.60;;;;;;4154266;28;20045;-74
2022/01/25 09:44:35;;;;;;;3.33;1.50;;;28.10;57.50;;;;;;4141621;28;20040;-73
2022/01/25 09:46:58;;;;;;;3.72;1.75;;;28.10;57.60;;;;;;4155856;28;20087;-74
2022/01/25 09:49:21;;;;;;;4.53;1.40;;;28.10;57.50;;;;;;4157173;28;20045;-74
2022/01/25 09:51:45;;;;;;;3.33;1.52;;;28.10;57.60;;;;;;4154260;28;20038;-73
2022/01/25 09:54:10;;;;;;;3.63;1.30;;;28.10;57.60;;;;;;4154886;28;20088;-73
2022/01/25 09:56:33;;;;;;;4.20;1.42;;;28.00;57.50;;;;;;4154335;28;20712;-74
2022/01/25 09:59:00;;;;;;;3.22;1.42;;;28.00;57.50;;;;;;4155398;28;20387;-75
2022/01/25 10:01:31;;;;;;;5.00;1.60;;;28.00;57.80;;;;;;4153750;28;20088;-75
2022/01/25 10:03:54;;;;;;;4.28;1.75;;;28.00;57.70;;;;;;4154417;28;20037;-74
2022/01/25 10:06:20;;;;;;;2.70;1.60;;;28.00;57.80;;;;;;4154177;28;20073;-73
2022/01/25 10:08:47;;;;;;;4.15;1.70;;;28.00;57.80;;;;;;4151630;28;20033;-74
2022/01/25 10:11:12;;;;;;;3.40;1.45;;;28.00;58.40;;;;;;4156551;28;20096;-75
2022/01/25 10:13:41;;;;;;;3.88;1.50;;;28.00;57.70;;;;;;4154520;28;20145;-75
2022/01/25 10:16:33;;;;;;;5.55;1.77;;;28.00;57.90;;;;;;4155645;28;20487;-72
2022/01/25 10:19:16;;;;;;;5.28;1.42;;;28.00;58.70;;;;;;4154698;28;20064;-73
2022/01/25 10:21:48;;;;;;;3.22;1.33;;;27.90;58.20;;;;;;4153658;28;20048;-73
2022/01/25 10:24:14;;;;;;;3.05;1.15;;;27.90;57.90;;;;;;4156300;28;20113;-73
2022/01/25 10:26:46;;;;;;;3.47;1.30;;;27.90;58.20;;;;;;4155945;28;20038;-74
2022/01/25 10:29:16;;;;;;;3.58;1.20;;;27.90;58.20;;;;;;4158762;28;20107;-74
2022/01/25 10:31:45;;;;;;;4.55;1.52;;;27.90;58.20;;;;;;4160603;28;20120;-74
2022/01/25 10:34:12;;;;;;;3.85;1.60;;;27.90;58.00;;;;;;4161400;28;20087;-75
2022/01/25 10:36:39;;;;;;;3.97;1.45;;;27.90;58.00;;;;;;4155985;28;20068;-75
2022/01/25 10:39:03;;;;;;;2.75;1.45;;;27.90;58.20;;;;;;4159117;28;20148;-73
2022/01/25 10:41:28;;;;;;;2.25;1.20;;;27.90;58.20;;;;;;4159298;28;20037;-73
2022/01/25 10:43:55;;;;;;;2.60;1.33;;;27.90;58.30;;;;;;4164595;28;20051;-72
2022/01/25 10:46:25;;;;;;;2.97;1.58;;;27.80;58.40;;;;;;4162272;28;20048;-74
2022/01/25 10:48:57;;;;;;;3.63;1.70;;;27.90;58.60;;;;;;4150670;28;20064;-73
2022/01/25 10:51:25;;;;;;;2.90;1.30;;;27.80;58.50;;;;;;4166310;28;20513;-76
2022/01/25 10:54:09;;;;;;;3.42;1.30;;;27.80;58.40;;;;;;4164148;28;20095;-74
2022/01/25 10:56:41;;;;;;;3.20;1.60;;;27.80;58.60;;;;;;4164975;28;20046;-76
2022/01/25 10:59:06;;;;;;;3.78;1.60;;;27.80;58.60;;;;;;4161338;28;20096;-75
2022/01/25 11:01:34;;;;;;;3.78;1.50;;;27.80;58.30;;;;;;4161042;28;20034;-75
2022/01/25 11:04:09;;;;;;;3.72;1.38;;;27.80;58.50;;;;;;4159342;28;20045;-75
2022/01/25 11:06:32;;;;;;;3.83;1.67;;;27.80;58.60;;;;;;4160262;28;20041;-73
2022/01/25 11:08:59;;;;;;;3.20;1.65;;;27.80;58.80;;;;;;4159208;28;20351;-74
2022/01/25 11:11:33;;;;;;;3.25;1.42;;;27.70;58.60;;;;;;4158497;28;20124;-74
2022/01/25 11:14:00;;;;;;;2.20;1.25;;;27.70;58.60;;;;;;4155756;28;20148;-75
2022/01/25 11:16:22;;;;;;;3.80;1.63;;;27.70;58.50;;;;;;4156392;28;20048;-74
2022/01/25 11:18:45;;;;;;;3.80;1.55;;;27.70;58.70;;;;;;4152944;28;20046;-75
2022/01/25 11:21:10;;;;;;;3.33;1.30;;;27.70;58.60;;;;;;4150970;28;20142;-73
2022/01/25 11:23:35;;;;;;;4.00;1.42;;;27.70;58.70;;;;;;4155242;28;20037;-74
2022/01/25 11:25:59;;;;;;;2.95;1.40;;;27.70;58.80;;;;;;4154207;28;20049;-74
2022/01/25 11:28:21;;;;;;;3.20;1.67;;;27.70;58.80;;;;;;4158061;28;20042;-77
2022/01/25 11:30:46;;;;;;;4.95;1.50;;;27.70;58.90;;;;;;4157206;28;20517;-74
2022/01/25 11:33:10;;;;;;;2.67;1.40;;;27.70;58.90;;;;;;4154931;28;20518;-74
2022/01/25 11:35:33;;;;;;;4.47;1.73;;;27.70;58.70;;;;;;4154136;28;20120;-75
2022/01/25 11:37:56;;;;;;;4.57;1.37;;;27.70;59.00;;;;;;4151114;28;20057;-75
2022/01/25 11:40:29;;;;;;;2.93;1.17;;;27.60;58.80;;;;;;4158485;28;20045;-75
2022/01/25 11:42:59;;;;;;;3.13;1.30;;;27.60;58.80;;;;;;4152809;28;21032;-74
2022/01/25 11:45:30;;;;;;;2.15;1.38;;;27.60;58.80;;;;;;4156331;28;20163;-75
2022/01/25 11:47:55;;;;;;;2.20;1.27;;;27.60;58.70;;;;;;4137795;28;20073;-75
2022/01/25 11:50:18;;;;;;;4.32;1.65;;;27.60;59.00;;;;;;4154308;28;20029;-74
2022/01/25 11:52:53;;;;;;;3.38;1.60;;;27.60;59.00;;;;;;4153562;28;20111;-75
2022/01/25 11:55:34;;;;;;;3.45;1.50;;;27.60;59.20;;;;;;4156801;28;20086;-76
2022/01/25 11:57:56;;;;;;;4.45;1.63;;;27.60;58.80;;;;;;4152060;28;20048;-73
2022/01/25 12:00:23;;;;;;;3.33;1.40;;;27.60;59.00;;;;;;4157960;28;20562;-74
2022/01/25 12:02:53;;;;;;;2.25;1.25;;;27.60;59.20;;;;;;4156902;28;20446;-74
2022/01/25 12:05:25;;;;;;;1.98;1.15;;;27.50;59.10;;;;;;4156536;28;20050;-73
2022/01/25 12:08:09;;;;;;;3.20;1.38;;;27.50;59.20;;;;;;4155089;28;20183;-74
2022/01/25 12:10:44;;;;;;;3.45;1.48;;;27.50;59.50;;;;;;4154560;28;20092;-73
2022/01/25 12:13:33;;;;;;;4.95;1.73;;;27.50;59.10;;;;;;4144653;28;20048;-74
2022/01/25 12:16:26;;;;;;;2.65;1.20;;;27.50;59.70;;;;;;4155197;28;20041;-73
2022/01/25 12:18:57;;;;;;;4.07;1.70;;;27.50;59.60;;;;;;4157008;28;20076;-73
2022/01/25 12:21:49;;;;;;;2.60;1.33;;;27.50;59.40;;;;;;4160996;28;20095;-73
2022/01/25 12:24:22;;;;;;;4.57;1.65;;;27.50;59.70;;;;;;4154859;28;20120;-74
2022/01/25 12:27:10;;;;;;;2.08;1.45;;;27.50;59.40;;;;;;4145251;28;20034;-74
2022/01/25 12:29:42;;;;;;;2.92;1.50;;;27.50;59.50;;;;;;4158655;28;20041;-73
2022/01/25 12:32:27;;;;;;;4.68;1.60;;;27.40;59.40;;;;;;4159928;28;20095;-73
2022/01/25 12:35:10;;;;;;;4.30;1.55;;;27.40;59.70;;;;;;4156868;28;20092;-73
2022/01/25 12:37:46;;;;;;;2.40;1.13;;;27.40;59.70;;;;;;4157078;28;20037;-73
2022/01/25 12:40:52;;;;;;;3.33;1.50;;;27.40;59.60;;;;;;4160402;28;20224;-73
2022/01/25 12:43:21;;;;;;;2.97;1.45;;;27.40;59.80;;;;;;4156856;28;20044;-73
2022/01/25 12:45:54;;;;;;;3.13;1.38;;;27.40;59.40;;;;;;4156718;28;20037;-73
2022/01/25 12:48:20;;;;;;;3.28;1.40;;;27.40;59.40;;;;;;4158763;28;20138;-74
2022/01/25 12:50:45;;;;;;;4.07;1.52;;;27.40;59.40;;;;;;4159212;28;20423;-74
2022/01/25 12:53:10;;;;;;;3.90;1.65;;;27.40;59.60;;;;;;4156305;28;20049;-73
2022/01/25 12:55:36;;;;;;;3.22;1.45;;;27.40;59.40;;;;;;4160350;28;20428;-73
2022/01/25 12:57:59;;;;;;;3.08;1.40;;;27.30;59.50;;;;;;4156381;28;20049;-74
2022/01/25 13:00:28;;;;;;;3.17;1.45;;;27.30;59.50;;;;;;4159686;28;20423;-74
2022/01/25 13:02:50;;;;;;;3.78;1.40;;;27.30;60.10;;;;;;4158907;28;20045;-73
2022/01/25 13:05:21;;;;;;;3.65;1.45;;;27.30;59.60;;;;;;4157468;28;20041;-73
2022/01/25 13:07:44;;;;;;;4.93;1.67;;;27.30;59.50;;;;;;4156675;28;20033;-74
2022/01/25 13:10:09;;;;;;;4.25;1.73;;;27.30;59.50;;;;;;4143927;28;20057;-73
2022/01/25 13:12:36;;;;;;;4.25;1.63;;;27.30;59.60;;;;;;4143271;28;20034;-73
2022/01/25 13:15:15;;;;;;;1.90;1.35;;;27.30;59.60;;;;;;4142748;28;20033;-73
2022/01/25 13:17:38;;;;;;;4.07;1.52;;;27.30;59.60;;;;;;4141985;28;20277;-73
2022/01/25 13:20:03;;;;;;;3.00;1.50;;;27.30;59.70;;;;;;4138422;28;20061;-73
2022/01/25 13:22:38;;;;;;;4.43;1.63;;;27.30;59.60;;;;;;4137914;28;20842;-75
2022/01/25 13:27:32;;;;;;;3.10;1.50;;;27.30;59.20;;;;;;4142296;28;20723;-74
2022/01/25 13:32:39;;;;;;;3.78;1.90;;;27.20;59.60;;;;;;4143424;28;20397;-74
2022/01/25 13:35:04;;;;;;;2.28;1.50;;;27.20;59.80;;;;;;4140472;28;20030;-73
2022/01/25 13:37:26;;;;;;;4.03;1.50;;;27.20;59.80;;;;;;4144662;28;20767;-74
2022/01/25 13:40:00;;;;;;;3.15;1.40;;;27.20;59.70;;;;;;4139197;28;20046;-73
2022/01/25 13:42:34;;;;;;;2.30;1.55;;;27.20;60.00;;;;;;4140096;28;20084;-72
2022/01/25 13:48:10;;;;;;;3.35;1.48;;;27.20;60.50;;;;;;4131397;28;20382;-73
2022/01/25 13:50:35;;;;;;;3.50;1.75;;;27.20;60.10;;;;;;4128077;28;20105;-73
2022/01/25 13:52:57;;;;;;;4.60;1.70;;;27.20;60.00;;;;;;4143432;28;20324;-73
2022/01/25 13:55:20;;;;;;;3.78;1.55;;;27.20;59.90;;;;;;4142711;28;20042;-73
2022/01/25 13:57:42;;;;;;;3.10;1.40;;;27.10;59.90;;;;;;4142906;28;20789;-73
2022/01/25 14:00:05;;;;;;;3.55;1.48;;;27.10;59.90;;;;;;4137195;28;20045;-73
2022/01/25 14:02:28;;;;;;;4.28;1.63;;;27.10;59.90;;;;;;4142474;28;20136;-73
2022/01/25 14:05:00;;;;;;;3.72;1.55;;;27.10;60.00;;;;;;4141694;28;20073;-74
2022/01/25 14:07:23;;;;;;;2.95;1.48;;;27.10;60.10;;;;;;4142204;28;20045;-73
2022/01/25 14:09:49;;;;;;;3.35;1.73;;;27.10;60.00;;;;;;4141483;28;20527;-72
2022/01/25 14:25:46;;;;;;;1.90;1.33;;;27.00;60.00;;;;;;4136073;28;20129;-73
2022/01/25 14:28:13;;;;;;;2.45;1.67;;;27.00;60.30;;;;;;4128689;28;20038;-73